LGKOLOWI

Guest
Details From LGKO - Kos
To LOWI - Innsbruck Kranebitten
Flight Number -
Tags Generated
Created
Modified
Stats Distance 939 nm / 1,739 km
Max Altitude 0 ft / 0 m
Waypoints 6
Social Downloads 0
Likes 0
Share VATSIM

Download

Looking for another format? Having issues loading an existing format? Contact us
Advertisement - Login to hide

Notes

Generated

Route

LGKO PELAS PELEV RASTU OEJ11 LOWI

ID Type Via Altitude Latitude Longitude Leg Dist Tot Dist Heading (true) Name
O LGKO APT - 0 ft / 0 m 36.80364˚ 27.08364˚ - 0 nm - -
PELAS FIX - 0 ft / 0 m 39.30000˚ 23.99167˚ 209 nm 209 nm 317° / 315° -
PELEV FIX - 0 ft / 0 m 42.61656˚ 19.38622˚ 288 nm 497 nm 315° / 312° -
RASTU FIX - 0 ft / 0 m 44.94222˚ 15.74333˚ 210 nm 708 nm 313° / 310° -
OEJ11 FIX - 0 ft / 0 m 47.24597˚ 11.35125˚ 229 nm 938 nm 309° / 306° -
O LOWI APT - 0 ft / 0 m 47.25883˚ 11.33091˚ 1 nm 939 nm 313° / 313° -

Altitude Profile

Advertisement - Login to hide

Weather


0- 5 10 15 20 25 30 35+ Temperature / ° C

Clouds and Precipitation
Forecast for 2018-05-24 18:00 UTC. Updated 4 hours ago

Ground ~20,000 ft ~40,000 ft Winds

LGKO

Details ICAO LGKO (KGS)
Name KOS
Region Greece
Timezone Europe/Athens (UTC+3.0)
Stats Elevation 412 ft / 126 m (AMSL)
Location 36.794403° 27.090764°
Runways 1
Magnetic Variation 4.765° E

METAR

LGKO 242120Z 31008KT 9999 SCT011 20/18 Q1008

Decode

TAF

TAF LGKO 241700Z 2418/2518 30015KT 9000 SCT015

Decode

Departure Runways

ID Width Length Bearing (true) Bearing (mag) Surface Threshold Offset Overrun Length
14 148 ft / 45 m 7,923 ft / 2,415 m 148.29° 143.52° Asphalt 0 ft / 0 m 240 ft / 73 m
32 148 ft / 45 m 7,923 ft / 2,415 m 328.30° 323.53° Asphalt 0 ft / 0 m 205 ft / 62 m

LOWI

Details ICAO LOWI (INN)
Name Innsbruck Kranebitten
Region Austria
Timezone Europe/Vienna (UTC+2.0)
Stats Elevation 1,906 ft / 581 m (AMSL)
Location 47.260226° 11.343967°
Runways 1
Magnetic Variation 3.072° E

METAR

LOWI 242120Z AUTO 34003KT 9999 FEW030 BKN110 15/13 Q1020

Decode

TAF

TAF LOWI 241715Z 2418/2518 08005KT 9999 FEW060 SCT120 BKN300 TX25/2514Z TN12/2504Z PROB30 TEMPO 2418/2420 SHRA FEW060TCU BKN080 BECMG 2420/2422 27007KT BECMG 2508/2510 09005KT

Decode

Destination Runways

ID Width Length Bearing (true) Bearing (mag) Surface Threshold Offset Overrun Length
08 148 ft / 45 m 6,545 ft / 1,995 m 81.02° 77.95° Asphalt 338 ft / 103 m 0 ft / 0 m
26 148 ft / 45 m 6,545 ft / 1,995 m 261.04° 257.97° Asphalt 0 ft / 0 m 0 ft / 0 m

Approach Navaids

Runway Type Ident Frequency Range Bearing (true) Bearing (mag) Slope Elevation
26 Localiser OEV 111.10 MHz 27 nm / 50 km 256.00° 252.93° - 1,906 ft / 581 m (AMSL)
26 Localiser OEJ 109.70 MHz 30 nm / 56 km 69.00° 65.93° - 1,906 ft / 581 m (AMSL)
26 Glidescope OEV 111.10 MHz 18 nm / 33 km 256.00° 252.93° 3.80° 1,911 ft / 582 m (AMSL)
26 DME OEJ 109.70 MHz 30 nm / 56 km - - - 1,906 ft / 581 m (AMSL)
26 DME OEV 111.10 MHz 27 nm / 50 km - - - 1,911 ft / 582 m (AMSL)

Popular Alternatives